createdAt,value
2023-03-21T00:02:33.907Z,33.80
2023-03-21T00:07:39.374Z,23.35
2023-03-21T00:12:43.302Z,16.60
2023-03-21T00:17:50.879Z,20.40
2023-03-21T00:22:56.370Z,18.17
2023-03-21T00:28:08.392Z,18.30
2023-03-21T00:33:22.263Z,18.20
2023-03-21T00:38:31.276Z,8.82
2023-03-21T00:43:35.682Z,8.73
2023-03-21T00:48:39.733Z,9.82
2023-03-21T00:53:48.941Z,10.63
2023-03-21T00:58:53.135Z,19.05
2023-03-21T01:04:04.394Z,10.18
2023-03-21T01:09:14.788Z,11.93
2023-03-21T01:14:23.306Z,14.73
2023-03-21T01:19:44.732Z,11.33
2023-03-21T01:25:00.594Z,26.25
2023-03-21T01:30:19.049Z,18.63
2023-03-21T01:35:27.041Z,27.65
2023-03-21T01:40:34.069Z,35.13
2023-03-21T01:46:21.365Z,22.77
2023-03-21T01:51:45.267Z,17.60
2023-03-21T01:56:54.446Z,14.98
2023-03-21T02:02:07.184Z,14.40
2023-03-21T02:07:19.116Z,15.43
2023-03-21T02:12:30.569Z,16.48
2023-03-21T02:17:42.067Z,20.08
2023-03-21T02:23:11.612Z,21.98
2023-03-21T02:28:21.740Z,25.80
2023-03-21T02:33:58.619Z,37.05
2023-03-21T02:39:13.192Z,19.40
2023-03-21T02:44:24.176Z,25.52
2023-03-21T02:49:34.114Z,37.08
2023-03-21T02:54:47.887Z,22.23
2023-03-21T03:00:02.432Z,23.02
2023-03-21T03:05:21.568Z,26.00
2023-03-21T03:10:58.251Z,24.23
2023-03-21T03:16:11.870Z,21.60
2023-03-21T03:21:21.653Z,20.27
2023-03-21T03:26:30.818Z,18.02
2023-03-21T03:31:41.135Z,15.73
2023-03-21T03:36:51.693Z,19.40
2023-03-21T03:42:12.679Z,16.77
2023-03-21T03:47:47.741Z,19.67
2023-03-21T03:53:13.018Z,18.33
2023-03-21T03:58:36.151Z,37.40
2023-03-21T04:03:51.701Z,20.20
2023-03-21T04:09:03.517Z,14.43
2023-03-21T04:14:11.695Z,21.27
2023-03-21T04:19:17.357Z,23.50
2023-03-21T04:24:22.406Z,34.60
2023-03-21T04:29:30.022Z,23.05
2023-03-21T04:34:40.439Z,24.13
2023-03-21T04:39:46.503Z,18.35
2023-03-21T04:44:52.659Z,14.10
2023-03-21T04:49:58.218Z,9.80
2023-03-21T04:55:03.201Z,9.70
2023-03-21T05:00:11.453Z,13.93
2023-03-21T05:05:15.877Z,21.00
2023-03-21T05:10:20.608Z,17.23
2023-03-21T05:15:26.709Z,11.90
2023-03-21T05:20:30.756Z,14.23
2023-03-21T05:25:38.311Z,10.65
2023-03-21T05:30:49.540Z,11.85
2023-03-21T05:35:54.601Z,13.05
2023-03-21T05:40:59.610Z,11.25
2023-03-21T05:46:06.093Z,11.02
2023-03-21T05:51:10.836Z,11.95
2023-03-21T05:56:15.223Z,25.60
2023-03-21T06:01:31.467Z,21.70
2023-03-21T06:06:45.157Z,26.00
2023-03-21T06:11:52.081Z,33.55
2023-03-21T06:16:58.559Z,33.78
2023-03-21T06:22:04.147Z,31.45
2023-03-21T06:27:11.238Z,27.67
2023-03-21T06:32:29.331Z,33.30
2023-03-21T06:37:39.169Z,34.38
2023-03-21T06:42:44.277Z,30.20
2023-03-21T06:47:50.798Z,30.20
2023-03-21T06:53:24.772Z,27.85
2023-03-21T06:58:49.103Z,26.05
2023-03-21T07:04:07.746Z,27.83
2023-03-21T07:09:13.074Z,27.13
2023-03-21T07:14:17.385Z,28.27
2023-03-21T07:19:23.342Z,20.63
2023-03-21T07:24:28.366Z,59.33
2023-03-21T07:29:32.979Z,65.95
2023-03-21T07:34:39.200Z,55.05
2023-03-21T07:39:43.763Z,45.50
2023-03-21T07:44:49.443Z,39.75
2023-03-21T07:49:58.986Z,29.52
2023-03-21T07:55:03.056Z,38.83
2023-03-21T08:00:09.304Z,19.05
2023-03-21T08:05:21.972Z,15.15
2023-03-21T08:10:26.275Z,10.95
2023-03-21T08:15:30.528Z,16.98
2023-03-21T08:20:36.212Z,16.35
2023-03-21T08:25:41.118Z,16.42
2023-03-21T08:30:45.296Z,21.13
2023-03-21T08:35:50.981Z,19.38
2023-03-21T08:40:55.245Z,18.38
2023-03-21T08:45:59.459Z,11.32
2023-03-21T08:51:05.224Z,7.65
2023-03-21T08:56:10.269Z,10.95
2023-03-21T09:01:16.016Z,13.32
2023-03-21T09:06:24.480Z,9.43
2023-03-21T09:11:28.729Z,19.27
2023-03-21T09:16:33.806Z,13.63
2023-03-21T09:21:39.712Z,16.02
2023-03-21T09:26:45.640Z,15.45
2023-03-21T09:31:50.219Z,8.80
2023-03-21T09:36:57.960Z,5.85
2023-03-21T09:42:31.069Z,8.00
2023-03-21T09:47:45.962Z,8.32
2023-03-21T09:52:58.279Z,10.73
2023-03-21T09:58:07.832Z,7.95
2023-03-21T10:03:24.646Z,7.53
2023-03-21T10:08:34.289Z,6.43
2023-03-21T10:13:44.506Z,8.85
2023-03-21T10:18:51.075Z,10.77
2023-03-21T10:23:58.834Z,10.02
2023-03-21T10:29:04.756Z,5.07
2023-03-21T10:39:49.809Z,12.23
2023-03-21T10:44:55.475Z,12.63
2023-03-21T10:50:09.003Z,8.23
2023-03-21T10:55:24.455Z,11.90
2023-03-21T11:00:31.600Z,10.18
2023-03-21T11:11:12.537Z,9.07
2023-03-21T11:16:24.333Z,9.77
2023-03-21T11:21:29.631Z,6.18
2023-03-21T11:26:38.094Z,9.27
2023-03-21T11:31:43.269Z,11.73
2023-03-21T11:36:52.657Z,7.65
2023-03-21T11:41:58.104Z,6.07
2023-03-21T11:47:03.069Z,10.63
2023-03-21T11:52:18.346Z,9.35
2023-03-21T11:57:32.223Z,9.48
2023-03-21T12:02:55.495Z,23.95
2023-03-21T12:08:07.452Z,7.57
2023-03-21T12:13:38.237Z,5.90
2023-03-21T12:19:00.735Z,5.55
2023-03-21T12:24:11.026Z,10.73
2023-03-21T12:29:30.335Z,9.75
2023-03-21T12:34:51.261Z,13.73
2023-03-21T12:40:07.591Z,12.43
2023-03-21T12:45:17.073Z,5.93
2023-03-21T12:50:26.316Z,6.28
2023-03-21T12:55:34.133Z,6.80
2023-03-21T13:00:44.740Z,11.25
2023-03-21T13:05:54.804Z,6.28
2023-03-21T13:11:01.187Z,9.63
2023-03-21T13:16:14.748Z,11.05
2023-03-21T13:21:26.844Z,10.65
2023-03-21T13:26:38.171Z,8.52
2023-03-21T13:31:52.424Z,8.15
2023-03-21T13:36:58.160Z,12.80
2023-03-21T13:42:07.516Z,7.90
2023-03-21T13:47:43.981Z,10.98
2023-03-21T13:53:19.410Z,8.50
2023-03-21T13:58:34.949Z,13.43
2023-03-21T14:03:41.540Z,8.02
2023-03-21T14:08:49.400Z,7.22
2023-03-21T14:13:55.747Z,12.93
2023-03-21T14:19:06.718Z,15.90
2023-03-21T14:24:15.155Z,12.80
2023-03-21T14:29:26.881Z,12.17
2023-03-21T14:34:36.984Z,11.88
2023-03-21T14:39:42.323Z,10.55
2023-03-21T14:44:55.247Z,21.85
2023-03-21T14:50:02.288Z,22.48
2023-03-21T14:55:16.544Z,22.83
2023-03-21T15:00:27.612Z,23.25
2023-03-21T15:05:38.605Z,22.10
2023-03-21T15:10:43.276Z,14.88
2023-03-21T15:15:52.257Z,11.38
2023-03-21T15:21:02.140Z,10.30
2023-03-21T15:32:04.770Z,20.83
2023-03-21T15:37:17.619Z,7.65
2023-03-21T15:42:27.583Z,16.08
2023-03-21T15:47:42.414Z,14.52
2023-03-21T15:52:51.229Z,20.13
2023-03-21T15:58:00.976Z,13.13
2023-03-21T16:03:09.347Z,12.48
2023-03-21T16:08:22.854Z,18.07
2023-03-21T16:13:27.159Z,17.25
2023-03-21T16:18:32.309Z,13.00
2023-03-21T16:23:38.076Z,11.80
2023-03-21T16:28:42.154Z,12.95
2023-03-21T16:33:47.210Z,10.68
2023-03-21T16:38:53.851Z,25.42
2023-03-21T16:43:57.837Z,17.55
2023-03-21T16:49:01.920Z,12.43
2023-03-21T16:54:07.449Z,23.30
2023-03-21T16:59:13.534Z,15.20
2023-03-21T17:04:19.643Z,17.35
2023-03-21T17:09:28.014Z,23.40
2023-03-21T17:14:32.259Z,19.05
2023-03-21T17:19:37.873Z,21.17
2023-03-21T17:24:43.341Z,14.52
2023-03-21T17:29:47.420Z,15.63
2023-03-21T17:34:53.334Z,14.35
2023-03-21T17:40:00.509Z,19.27
2023-03-21T17:45:04.766Z,16.52
2023-03-21T17:50:15.903Z,34.03
2023-03-21T17:55:21.495Z,19.83
2023-03-21T18:00:29.016Z,23.13
2023-03-21T18:05:33.800Z,23.35
2023-03-21T18:10:42.557Z,25.90
2023-03-21T18:15:48.320Z,28.33
2023-03-21T18:20:54.502Z,24.35
2023-03-21T18:26:00.904Z,31.40
2023-03-21T18:31:11.389Z,21.77
2023-03-21T18:36:24.655Z,19.58
2023-03-21T18:41:30.747Z,21.80
2023-03-21T18:46:35.155Z,20.35
2023-03-21T18:51:39.996Z,18.67
2023-03-21T19:02:17.041Z,51.25
2023-03-21T19:07:22.019Z,37.05
2023-03-21T19:12:29.121Z,48.03
2023-03-21T19:22:58.841Z,65.85
2023-03-21T19:28:04.366Z,36.50
2023-03-21T19:33:08.527Z,31.50
2023-03-21T19:38:14.508Z,56.50
2023-03-21T19:48:50.581Z,53.03
2023-03-21T19:53:56.931Z,38.38
2023-03-21T19:59:03.203Z,14.77
2023-03-21T20:04:07.313Z,22.92
2023-03-21T20:09:49.707Z,17.17
2023-03-21T20:14:37.219Z,23.02
2023-03-21T20:19:42.136Z,28.35
2023-03-21T20:24:47.088Z,22.38
2023-03-21T20:30:10.039Z,28.52
2023-03-21T20:35:25.325Z,28.70
2023-03-21T20:40:41.487Z,12.13
2023-03-21T20:45:46.796Z,12.82
2023-03-21T20:50:57.857Z,23.38
2023-03-21T20:56:05.729Z,17.02
2023-03-21T21:01:15.653Z,14.90
2023-03-21T21:06:39.716Z,24.15
2023-03-21T21:17:30.824Z,14.15
2023-03-21T21:22:34.811Z,17.85
2023-03-21T21:27:38.854Z,12.00
2023-03-21T21:32:44.434Z,12.98
2023-03-21T21:37:48.445Z,9.18
2023-03-21T21:42:52.709Z,9.75
2023-03-21T21:47:58.116Z,31.90
2023-03-21T21:53:04.045Z,16.02
2023-03-21T21:58:09.218Z,14.52
2023-03-21T22:03:16.387Z,13.30
2023-03-21T22:08:24.759Z,15.30
2023-03-21T22:13:28.825Z,9.75
2023-03-21T22:18:36.225Z,7.72
2023-03-21T22:23:41.750Z,7.22
2023-03-21T22:28:45.929Z,10.90
2023-03-21T22:33:51.294Z,19.10
2023-03-21T22:38:55.838Z,17.80
2023-03-21T22:44:00.081Z,12.98
2023-03-21T22:49:05.966Z,20.67
2023-03-21T22:54:10.045Z,27.42
2023-03-21T22:59:14.623Z,25.10
2023-03-21T23:04:20.292Z,14.05
2023-03-21T23:09:24.417Z,12.27
2023-03-21T23:14:28.760Z,6.85
2023-03-21T23:19:34.282Z,15.95
2023-03-21T23:24:38.319Z,14.07
2023-03-21T23:29:43.940Z,12.70
2023-03-21T23:34:49.340Z,10.57
2023-03-21T23:39:55.259Z,11.20
2023-03-21T23:44:59.844Z,12.10
2023-03-21T23:50:07.796Z,9.50
2023-03-21T23:55:12.153Z,5.95
